sensor_id;sensor_type;location;lat;lon;timestamp;pressure;altitude;pressure_sealevel;temperature;humidity
78198;BME280;67472;51.554;7.812;2023-08-17T00:01:51;101193.75;;;18.82;100.00
78198;BME280;67472;51.554;7.812;2023-08-17T00:04:37;101202.44;;;18.76;100.00
78198;BME280;67472;51.554;7.812;2023-08-17T00:07:23;101203.09;;;18.78;100.00
78198;BME280;67472;51.554;7.812;2023-08-17T00:10:09;101208.47;;;18.78;100.00
78198;BME280;67472;51.554;7.812;2023-08-17T00:12:56;101210.63;;;18.67;100.00
78198;BME280;67472;51.554;7.812;2023-08-17T00:15:44;101212.47;;;18.58;100.00
78198;BME280;67472;51.554;7.812;2023-08-17T00:18:30;101219.44;;;18.43;100.00
78198;BME280;67472;51.554;7.812;2023-08-17T00:21:15;101228.56;;;18.16;100.00
78198;BME280;67472;51.554;7.812;2023-08-17T00:24:02;101229.72;;;18.14;100.00
78198;BME280;67472;51.554;7.812;2023-08-17T00:26:49;101235.28;;;18.28;100.00
78198;BME280;67472;51.554;7.812;2023-08-17T00:29:34;101242.25;;;18.13;100.00
78198;BME280;67472;51.554;7.812;2023-08-17T00:32:22;101244.09;;;18.13;100.00
78198;BME280;67472;51.554;7.812;2023-08-17T00:35:08;101241.72;;;18.01;100.00
78198;BME280;67472;51.554;7.812;2023-08-17T00:37:54;101242.81;;;17.91;100.00
78198;BME280;67472;51.554;7.812;2023-08-17T00:40:41;101253.19;;;17.94;100.00
78198;BME280;67472;51.554;7.812;2023-08-17T00:43:26;101260.31;;;17.77;100.00
78198;BME280;67472;51.554;7.812;2023-08-17T00:46:14;101275.56;;;17.59;100.00
78198;BME280;67472;51.554;7.812;2023-08-17T00:49:02;101283.88;;;17.56;100.00
78198;BME280;67472;51.554;7.812;2023-08-17T00:51:49;101305.69;;;17.69;100.00
78198;BME280;67472;51.554;7.812;2023-08-17T00:54:35;101328.09;;;17.76;100.00
78198;BME280;67472;51.554;7.812;2023-08-17T00:57:23;101341.25;;;17.95;100.00
78198;BME280;67472;51.554;7.812;2023-08-17T01:00:11;101342.25;;;17.94;100.00
78198;BME280;67472;51.554;7.812;2023-08-17T01:02:58;101355.47;;;17.96;100.00
78198;BME280;67472;51.554;7.812;2023-08-17T01:05:45;101361.84;;;18.03;100.00
78198;BME280;67472;51.554;7.812;2023-08-17T01:08:32;101367.41;;;18.10;100.00
78198;BME280;67472;51.554;7.812;2023-08-17T01:11:24;101369.91;;;18.11;100.00
78198;BME280;67472;51.554;7.812;2023-08-17T01:14:19;101359.38;;;18.10;100.00
78198;BME280;67472;51.554;7.812;2023-08-17T01:17:13;101359.06;;;18.13;100.00
78198;BME280;67472;51.554;7.812;2023-08-17T01:20:02;101357.25;;;18.13;100.00
78198;BME280;67472;51.554;7.812;2023-08-17T01:22:55;101361.25;;;18.17;100.00
78198;BME280;67472;51.554;7.812;2023-08-17T01:25:44;101360.44;;;18.17;100.00
78198;BME280;67472;51.554;7.812;2023-08-17T01:28:30;101359.94;;;18.21;100.00
78198;BME280;67472;51.554;7.812;2023-08-17T01:31:20;101352.22;;;18.10;100.00
78198;BME280;67472;51.554;7.812;2023-08-17T01:34:13;101346.88;;;18.10;100.00
78198;BME280;67472;51.554;7.812;2023-08-17T01:37:06;101348.91;;;18.16;100.00
78198;BME280;67472;51.554;7.812;2023-08-17T01:39:55;101362.28;;;18.16;100.00
78198;BME280;67472;51.554;7.812;2023-08-17T01:42:43;101365.63;;;18.18;100.00
78198;BME280;67472;51.554;7.812;2023-08-17T01:45:30;101365.56;;;18.10;100.00
78198;BME280;67472;51.554;7.812;2023-08-17T01:48:16;101352.75;;;18.14;100.00
78198;BME280;67472;51.554;7.812;2023-08-17T01:51:02;101348.06;;;18.16;100.00
78198;BME280;67472;51.554;7.812;2023-08-17T01:53:48;101338.03;;;18.18;100.00
78198;BME280;67472;51.554;7.812;2023-08-17T01:56:34;101331.78;;;18.01;100.00
78198;BME280;67472;51.554;7.812;2023-08-17T01:59:22;101321.22;;;17.99;100.00
78198;BME280;67472;51.554;7.812;2023-08-17T02:02:08;101317.34;;;17.94;100.00
78198;BME280;67472;51.554;7.812;2023-08-17T02:04:56;101319.84;;;17.87;100.00
78198;BME280;67472;51.554;7.812;2023-08-17T02:07:42;101325.91;;;17.97;100.00
78198;BME280;67472;51.554;7.812;2023-08-17T02:10:28;101328.75;;;17.96;100.00
78198;BME280;67472;51.554;7.812;2023-08-17T02:13:14;101348.28;;;17.96;100.00
78198;BME280;67472;51.554;7.812;2023-08-17T02:16:02;101357.34;;;18.03;100.00
78198;BME280;67472;51.554;7.812;2023-08-17T02:18:49;101356.69;;;18.01;100.00
78198;BME280;67472;51.554;7.812;2023-08-17T02:21:36;101365.84;;;17.99;100.00
78198;BME280;67472;51.554;7.812;2023-08-17T02:24:22;101352.91;;;17.86;100.00
78198;BME280;67472;51.554;7.812;2023-08-17T02:27:11;101353.97;;;17.93;100.00
78198;BME280;67472;51.554;7.812;2023-08-17T02:29:57;101339.28;;;17.72;100.00
78198;BME280;67472;51.554;7.812;2023-08-17T02:32:45;101341.72;;;17.65;100.00
78198;BME280;67472;51.554;7.812;2023-08-17T02:35:31;101347.91;;;17.66;100.00
78198;BME280;67472;51.554;7.812;2023-08-17T02:38:18;101343.25;;;17.50;100.00
78198;BME280;67472;51.554;7.812;2023-08-17T02:41:04;101351.38;;;17.40;100.00
78198;BME280;67472;51.554;7.812;2023-08-17T02:43:50;101358.38;;;17.59;100.00
78198;BME280;67472;51.554;7.812;2023-08-17T02:46:37;101355.00;;;17.39;100.00
78198;BME280;67472;51.554;7.812;2023-08-17T02:49:25;101360.97;;;17.33;100.00
78198;BME280;67472;51.554;7.812;2023-08-17T02:52:11;101363.50;;;17.35;100.00
78198;BME280;67472;51.554;7.812;2023-08-17T02:54:57;101353.88;;;17.24;100.00
78198;BME280;67472;51.554;7.812;2023-08-17T02:57:43;101352.13;;;17.15;100.00
78198;BME280;67472;51.554;7.812;2023-08-17T03:00:29;101358.31;;;17.33;100.00
78198;BME280;67472;51.554;7.812;2023-08-17T03:03:15;101367.69;;;17.37;100.00
78198;BME280;67472;51.554;7.812;2023-08-17T03:06:04;101368.06;;;17.25;100.00
78198;BME280;67472;51.554;7.812;2023-08-17T03:08:51;101369.28;;;17.30;100.00
78198;BME280;67472;51.554;7.812;2023-08-17T03:11:38;101385.84;;;17.16;100.00
78198;BME280;67472;51.554;7.812;2023-08-17T03:14:24;101387.25;;;17.20;100.00
78198;BME280;67472;51.554;7.812;2023-08-17T03:17:10;101383.97;;;17.26;100.00
78198;BME280;67472;51.554;7.812;2023-08-17T03:19:56;101391.88;;;17.18;100.00
78198;BME280;67472;51.554;7.812;2023-08-17T03:22:45;101393.72;;;17.18;100.00
78198;BME280;67472;51.554;7.812;2023-08-17T03:25:31;101400.72;;;17.36;100.00
78198;BME280;67472;51.554;7.812;2023-08-17T03:28:17;101406.53;;;17.49;100.00
78198;BME280;67472;51.554;7.812;2023-08-17T03:31:03;101406.38;;;17.33;100.00
78198;BME280;67472;51.554;7.812;2023-08-17T03:33:49;101413.25;;;17.36;100.00
78198;BME280;67472;51.554;7.812;2023-08-17T03:36:36;101424.22;;;17.50;100.00
78198;BME280;67472;51.554;7.812;2023-08-17T03:39:23;101422.66;;;17.58;100.00
78198;BME280;67472;51.554;7.812;2023-08-17T03:42:10;101424.66;;;17.56;100.00
78198;BME280;67472;51.554;7.812;2023-08-17T03:44:56;101425.16;;;17.59;100.00
78198;BME280;67472;51.554;7.812;2023-08-17T03:47:43;101431.72;;;17.65;100.00
78198;BME280;67472;51.554;7.812;2023-08-17T03:50:29;101426.06;;;17.68;100.00
78198;BME280;67472;51.554;7.812;2023-08-17T03:53:17;101419.31;;;17.56;100.00
78198;BME280;67472;51.554;7.812;2023-08-17T03:56:04;101417.72;;;17.53;100.00
78198;BME280;67472;51.554;7.812;2023-08-17T03:58:53;101428.69;;;17.60;100.00
78198;BME280;67472;51.554;7.812;2023-08-17T04:01:40;101430.06;;;17.64;100.00
78198;BME280;67472;51.554;7.812;2023-08-17T04:04:26;101430.81;;;17.56;100.00
78198;BME280;67472;51.554;7.812;2023-08-17T04:07:20;101424.84;;;17.62;100.00
78198;BME280;67472;51.554;7.812;2023-08-17T04:10:08;101426.75;;;17.52;100.00
78198;BME280;67472;51.554;7.812;2023-08-17T04:12:56;101428.41;;;17.53;100.00
78198;BME280;67472;51.554;7.812;2023-08-17T04:15:42;101430.00;;;17.56;100.00
78198;BME280;67472;51.554;7.812;2023-08-17T04:18:28;101436.53;;;17.43;100.00
78198;BME280;67472;51.554;7.812;2023-08-17T04:21:14;101436.53;;;17.26;100.00
78198;BME280;67472;51.554;7.812;2023-08-17T04:24:00;101438.34;;;17.43;100.00
78198;BME280;67472;51.554;7.812;2023-08-17T04:26:48;101430.09;;;17.36;100.00
78198;BME280;67472;51.554;7.812;2023-08-17T04:29:37;101422.56;;;17.32;100.00
78198;BME280;67472;51.554;7.812;2023-08-17T04:32:23;101430.63;;;17.22;100.00
78198;BME280;67472;51.554;7.812;2023-08-17T04:35:10;101441.00;;;17.25;100.00
78198;BME280;67472;51.554;7.812;2023-08-17T04:37:56;101450.50;;;17.37;100.00
78198;BME280;67472;51.554;7.812;2023-08-17T04:40:42;101452.38;;;17.45;100.00
78198;BME280;67472;51.554;7.812;2023-08-17T04:43:28;101446.13;;;17.36;100.00
78198;BME280;67472;51.554;7.812;2023-08-17T04:46:16;101451.78;;;17.33;100.00
78198;BME280;67472;51.554;7.812;2023-08-17T04:49:03;101453.09;;;17.29;100.00
78198;BME280;67472;51.554;7.812;2023-08-17T04:51:49;101458.03;;;17.24;100.00
78198;BME280;67472;51.554;7.812;2023-08-17T04:54:35;101463.59;;;17.31;100.00
78198;BME280;67472;51.554;7.812;2023-08-17T04:57:21;101465.59;;;17.29;100.00
78198;BME280;67472;51.554;7.812;2023-08-17T05:00:08;101473.91;;;17.26;100.00
78198;BME280;67472;51.554;7.812;2023-08-17T05:02:55;101474.81;;;17.34;100.00
78198;BME280;67472;51.554;7.812;2023-08-17T05:05:44;101479.38;;;17.24;100.00
78198;BME280;67472;51.554;7.812;2023-08-17T05:08:30;101491.53;;;17.36;100.00
78198;BME280;67472;51.554;7.812;2023-08-17T05:11:16;101481.16;;;17.33;100.00
78198;BME280;67472;51.554;7.812;2023-08-17T05:14:03;101484.28;;;17.29;100.00
78198;BME280;67472;51.554;7.812;2023-08-17T05:16:50;101490.31;;;17.31;100.00
78198;BME280;67472;51.554;7.812;2023-08-17T05:19:37;101500.03;;;17.49;100.00
78198;BME280;67472;51.554;7.812;2023-08-17T05:22:27;101501.41;;;17.53;100.00
78198;BME280;67472;51.554;7.812;2023-08-17T05:25:13;101496.94;;;17.54;100.00
78198;BME280;67472;51.554;7.812;2023-08-17T05:27:59;101497.31;;;17.59;100.00
78198;BME280;67472;51.554;7.812;2023-08-17T05:30:46;101497.84;;;17.63;100.00
78198;BME280;67472;51.554;7.812;2023-08-17T05:33:32;101497.41;;;17.67;100.00
78198;BME280;67472;51.554;7.812;2023-08-17T05:36:20;101487.31;;;17.61;100.00
78198;BME280;67472;51.554;7.812;2023-08-17T05:39:07;101491.28;;;17.57;100.00
78198;BME280;67472;51.554;7.812;2023-08-17T05:41:54;101501.28;;;17.55;100.00
78198;BME280;67472;51.554;7.812;2023-08-17T05:44:40;101499.78;;;17.43;100.00
78198;BME280;67472;51.554;7.812;2023-08-17T05:47:27;101497.41;;;17.40;100.00
78198;BME280;67472;51.554;7.812;2023-08-17T05:50:13;101504.84;;;17.46;100.00
78198;BME280;67472;51.554;7.812;2023-08-17T05:53:00;101505.06;;;17.35;100.00
78198;BME280;67472;51.554;7.812;2023-08-17T05:55:47;101508.72;;;17.34;100.00
78198;BME280;67472;51.554;7.812;2023-08-17T05:58:33;101517.31;;;17.28;100.00
78198;BME280;67472;51.554;7.812;2023-08-17T06:01:19;101519.59;;;17.23;100.00
78198;BME280;67472;51.554;7.812;2023-08-17T06:04:05;101520.09;;;17.09;100.00
78198;BME280;67472;51.554;7.812;2023-08-17T06:06:51;101517.84;;;17.04;100.00
78198;BME280;67472;51.554;7.812;2023-08-17T06:09:39;101532.56;;;17.18;100.00
78198;BME280;67472;51.554;7.812;2023-08-17T06:12:25;101534.19;;;17.28;100.00
78198;BME280;67472;51.554;7.812;2023-08-17T06:15:13;101536.91;;;17.19;100.00
78198;BME280;67472;51.554;7.812;2023-08-17T06:17:59;101539.44;;;17.20;100.00
78198;BME280;67472;51.554;7.812;2023-08-17T06:20:45;101551.28;;;17.08;100.00
78198;BME280;67472;51.554;7.812;2023-08-17T06:23:32;101554.78;;;17.36;100.00
78198;BME280;67472;51.554;7.812;2023-08-17T06:26:20;101555.03;;;17.42;100.00
78198;BME280;67472;51.554;7.812;2023-08-17T06:29:06;101552.53;;;17.41;100.00
78198;BME280;67472;51.554;7.812;2023-08-17T06:31:52;101548.72;;;17.43;100.00
78198;BME280;67472;51.554;7.812;2023-08-17T06:34:39;101554.75;;;17.45;100.00
78198;BME280;67472;51.554;7.812;2023-08-17T06:37:25;101554.78;;;17.36;100.00
78198;BME280;67472;51.554;7.812;2023-08-17T06:40:12;101550.16;;;17.38;100.00
78198;BME280;67472;51.554;7.812;2023-08-17T06:42:59;101548.09;;;17.32;100.00
78198;BME280;67472;51.554;7.812;2023-08-17T06:45:45;101537.84;;;17.27;100.00
78198;BME280;67472;51.554;7.812;2023-08-17T06:48:33;101537.50;;;17.40;100.00
78198;BME280;67472;51.554;7.812;2023-08-17T06:51:19;101536.28;;;17.52;100.00
78198;BME280;67472;51.554;7.812;2023-08-17T06:54:07;101534.97;;;17.66;100.00
78198;BME280;67472;51.554;7.812;2023-08-17T06:56:54;101528.84;;;17.73;100.00
78198;BME280;67472;51.554;7.812;2023-08-17T06:59:41;101521.59;;;17.83;100.00
78198;BME280;67472;51.554;7.812;2023-08-17T07:02:30;101520.69;;;17.92;100.00
78198;BME280;67472;51.554;7.812;2023-08-17T07:05:17;101505.78;;;17.90;100.00
78198;BME280;67472;51.554;7.812;2023-08-17T07:08:04;101494.81;;;17.75;100.00
78198;BME280;67472;51.554;7.812;2023-08-17T07:10:51;101495.03;;;17.82;100.00
78198;BME280;67472;51.554;7.812;2023-08-17T07:13:37;101495.41;;;18.04;100.00
78198;BME280;67472;51.554;7.812;2023-08-17T07:16:25;101483.41;;;17.91;100.00
78198;BME280;67472;51.554;7.812;2023-08-17T07:19:11;101476.69;;;17.87;100.00
78198;BME280;67472;51.554;7.812;2023-08-17T07:21:58;101478.34;;;17.88;100.00
78198;BME280;67472;51.554;7.812;2023-08-17T07:24:44;101479.59;;;17.93;100.00
78198;BME280;67472;51.554;7.812;2023-08-17T07:27:30;101476.22;;;17.91;100.00
78198;BME280;67472;51.554;7.812;2023-08-17T07:30:16;101477.25;;;17.90;100.00
78198;BME280;67472;51.554;7.812;2023-08-17T07:33:04;101468.06;;;17.93;100.00
78198;BME280;67472;51.554;7.812;2023-08-17T07:35:50;101471.50;;;17.85;100.00
78198;BME280;67472;51.554;7.812;2023-08-17T07:38:38;101470.66;;;17.85;100.00
78198;BME280;67472;51.554;7.812;2023-08-17T07:41:24;101478.66;;;17.85;100.00
78198;BME280;67472;51.554;7.812;2023-08-17T07:44:10;101468.78;;;18.03;100.00
78198;BME280;67472;51.554;7.812;2023-08-17T07:46:57;101483.91;;;18.12;100.00
78198;BME280;67472;51.554;7.812;2023-08-17T07:49:45;101482.94;;;17.95;100.00
78198;BME280;67472;51.554;7.812;2023-08-17T07:52:31;101473.25;;;17.94;100.00
78198;BME280;67472;51.554;7.812;2023-08-17T07:55:17;101474.13;;;18.03;100.00
78198;BME280;67472;51.554;7.812;2023-08-17T07:58:03;101484.88;;;18.11;100.00
78198;BME280;67472;51.554;7.812;2023-08-17T08:00:51;101494.66;;;18.20;100.00
78198;BME280;67472;51.554;7.812;2023-08-17T08:03:37;101497.47;;;18.36;100.00
78198;BME280;67472;51.554;7.812;2023-08-17T08:06:24;101486.41;;;18.31;100.00
78198;BME280;67472;51.554;7.812;2023-08-17T08:09:11;101485.69;;;18.29;100.00
78198;BME280;67472;51.554;7.812;2023-08-17T08:11:57;101486.81;;;18.19;100.00
78198;BME280;67472;51.554;7.812;2023-08-17T08:14:43;101497.78;;;18.33;100.00
78198;BME280;67472;51.554;7.812;2023-08-17T08:17:29;101506.53;;;18.43;100.00
78198;BME280;67472;51.554;7.812;2023-08-17T08:20:16;101504.09;;;18.50;100.00
78198;BME280;67472;51.554;7.812;2023-08-17T08:23:03;101510.34;;;18.58;100.00
78198;BME280;67472;51.554;7.812;2023-08-17T08:25:50;101501.16;;;18.43;100.00
78198;BME280;67472;51.554;7.812;2023-08-17T08:28:36;101484.06;;;18.54;100.00
78198;BME280;67472;51.554;7.812;2023-08-17T08:31:22;101485.78;;;18.63;100.00
78198;BME280;67472;51.554;7.812;2023-08-17T08:34:08;101481.44;;;18.62;100.00
78198;BME280;67472;51.554;7.812;2023-08-17T08:36:54;101480.13;;;18.66;100.00
78198;BME280;67472;51.554;7.812;2023-08-17T08:39:53;101466.00;;;18.56;100.00
78198;BME280;67472;51.554;7.812;2023-08-17T08:42:40;101467.13;;;18.79;100.00
78198;BME280;67472;51.554;7.812;2023-08-17T08:45:28;101450.22;;;18.79;100.00
78198;BME280;67472;51.554;7.812;2023-08-17T08:48:16;101441.63;;;19.09;100.00
78198;BME280;67472;51.554;7.812;2023-08-17T08:51:07;101421.06;;;19.09;100.00
78198;BME280;67472;51.554;7.812;2023-08-17T08:54:00;101412.19;;;19.25;100.00
78198;BME280;67472;51.554;7.812;2023-08-17T08:56:53;101400.50;;;19.50;100.00
78198;BME280;67472;51.554;7.812;2023-08-17T08:59:41;101370.72;;;19.45;100.00
78198;BME280;67472;51.554;7.812;2023-08-17T09:02:31;101356.63;;;19.51;100.00
78198;BME280;67472;51.554;7.812;2023-08-17T09:05:18;101352.44;;;19.81;100.00
78198;BME280;67472;51.554;7.812;2023-08-17T09:08:08;101344.91;;;19.60;100.00
78198;BME280;67472;51.554;7.812;2023-08-17T09:10:56;101336.06;;;19.44;100.00
78198;BME280;67472;51.554;7.812;2023-08-17T09:13:44;101330.16;;;19.32;100.00
78198;BME280;67472;51.554;7.812;2023-08-17T09:16:30;101327.97;;;19.28;100.00
78198;BME280;67472;51.554;7.812;2023-08-17T09:19:16;101343.72;;;19.14;100.00
78198;BME280;67472;51.554;7.812;2023-08-17T09:22:04;101345.38;;;19.07;100.00
78198;BME280;67472;51.554;7.812;2023-08-17T09:24:50;101340.66;;;18.85;100.00
78198;BME280;67472;51.554;7.812;2023-08-17T09:27:37;101338.97;;;18.92;100.00
78198;BME280;67472;51.554;7.812;2023-08-17T09:30:25;101347.84;;;18.93;100.00
78198;BME280;67472;51.554;7.812;2023-08-17T09:33:11;101345.47;;;18.74;100.00
78198;BME280;67472;51.554;7.812;2023-08-17T09:35:58;101361.56;;;18.90;100.00
78198;BME280;67472;51.554;7.812;2023-08-17T09:38:47;101364.28;;;18.98;100.00
78198;BME280;67472;51.554;7.812;2023-08-17T09:41:38;101369.78;;;19.04;100.00
78198;BME280;67472;51.554;7.812;2023-08-17T09:44:25;101359.25;;;18.95;100.00
78198;BME280;67472;51.554;7.812;2023-08-17T09:47:13;101373.31;;;18.97;100.00
78198;BME280;67472;51.554;7.812;2023-08-17T09:49:59;101371.16;;;19.08;100.00
78198;BME280;67472;51.554;7.812;2023-08-17T09:52:45;101366.78;;;19.07;100.00
78198;BME280;67472;51.554;7.812;2023-08-17T09:55:31;101351.41;;;19.09;100.00
78198;BME280;67472;51.554;7.812;2023-08-17T09:58:18;101346.34;;;18.98;100.00
78198;BME280;67472;51.554;7.812;2023-08-17T10:01:05;101348.38;;;19.04;100.00
78198;BME280;67472;51.554;7.812;2023-08-17T10:03:54;101359.13;;;19.37;100.00
78198;BME280;67472;51.554;7.812;2023-08-17T10:06:42;101353.91;;;19.19;100.00
78198;BME280;67472;51.554;7.812;2023-08-17T10:09:31;101363.31;;;19.31;100.00
78198;BME280;67472;51.554;7.812;2023-08-17T10:12:23;101366.31;;;19.36;100.00
78198;BME280;67472;51.554;7.812;2023-08-17T10:15:15;101362.00;;;19.51;100.00
78198;BME280;67472;51.554;7.812;2023-08-17T10:18:08;101348.59;;;19.51;100.00
78198;BME280;67472;51.554;7.812;2023-08-17T10:21:00;101336.53;;;19.39;100.00
78198;BME280;67472;51.554;7.812;2023-08-17T10:23:49;101340.91;;;19.40;100.00
78198;BME280;67472;51.554;7.812;2023-08-17T10:26:36;101345.91;;;19.35;100.00
78198;BME280;67472;51.554;7.812;2023-08-17T10:29:23;101338.88;;;19.50;100.00
78198;BME280;67472;51.554;7.812;2023-08-17T10:32:10;101334.69;;;19.64;100.00
78198;BME280;67472;51.554;7.812;2023-08-17T10:34:57;101326.09;;;19.93;100.00
78198;BME280;67472;51.554;7.812;2023-08-17T10:37:46;101316.09;;;20.17;100.00
78198;BME280;67472;51.554;7.812;2023-08-17T10:40:37;101304.31;;;20.35;100.00
78198;BME280;67472;51.554;7.812;2023-08-17T10:43:32;101285.19;;;20.46;100.00
78198;BME280;67472;51.554;7.812;2023-08-17T10:46:18;101274.53;;;20.60;100.00
78198;BME280;67472;51.554;7.812;2023-08-17T10:49:05;101251.16;;;20.61;100.00
78198;BME280;67472;51.554;7.812;2023-08-17T10:52:06;101245.00;;;20.29;100.00
78198;BME280;67472;51.554;7.812;2023-08-17T10:54:54;101245.28;;;20.43;100.00
78198;BME280;67472;51.554;7.812;2023-08-17T10:57:54;101252.00;;;20.39;100.00
78198;BME280;67472;51.554;7.812;2023-08-17T11:00:41;101241.34;;;20.14;100.00
78198;BME280;67472;51.554;7.812;2023-08-17T11:03:34;101236.28;;;19.81;100.00
78198;BME280;67472;51.554;7.812;2023-08-17T11:06:21;101242.06;;;20.00;100.00
78198;BME280;67472;51.554;7.812;2023-08-17T11:09:08;101241.31;;;20.31;100.00
78198;BME280;67472;51.554;7.812;2023-08-17T11:12:00;101235.75;;;20.63;100.00
78198;BME280;67472;51.554;7.812;2023-08-17T11:14:46;101229.41;;;20.56;100.00
78198;BME280;67472;51.554;7.812;2023-08-17T11:17:32;101221.13;;;20.43;100.00
78198;BME280;67472;51.554;7.812;2023-08-17T11:20:18;101229.44;;;20.25;100.00
78198;BME280;67472;51.554;7.812;2023-08-17T11:23:05;101238.00;;;20.12;100.00
78198;BME280;67472;51.554;7.812;2023-08-17T11:25:54;101239.34;;;20.08;100.00
78198;BME280;67472;51.554;7.812;2023-08-17T11:28:42;101244.72;;;20.16;100.00
78198;BME280;67472;51.554;7.812;2023-08-17T11:31:31;101242.44;;;20.36;100.00
78198;BME280;67472;51.554;7.812;2023-08-17T11:34:20;101236.69;;;20.70;100.00
78198;BME280;67472;51.554;7.812;2023-08-17T11:37:07;101215.53;;;20.75;100.00
78198;BME280;67472;51.554;7.812;2023-08-17T11:39:56;101212.56;;;20.84;100.00
78198;BME280;67472;51.554;7.812;2023-08-17T11:42:42;101201.66;;;20.86;100.00
78198;BME280;67472;51.554;7.812;2023-08-17T11:45:31;101188.03;;;20.88;100.00
78198;BME280;67472;51.554;7.812;2023-08-17T11:48:18;101181.44;;;20.75;100.00
78198;BME280;67472;51.554;7.812;2023-08-17T11:51:04;101186.25;;;20.35;100.00
78198;BME280;67472;51.554;7.812;2023-08-17T11:53:51;101195.66;;;20.00;100.00
78198;BME280;67472;51.554;7.812;2023-08-17T11:56:37;101221.66;;;19.91;100.00
78198;BME280;67472;51.554;7.812;2023-08-17T11:59:27;101238.22;;;20.03;100.00
78198;BME280;67472;51.554;7.812;2023-08-17T12:02:17;101239.59;;;19.99;100.00
78198;BME280;67472;51.554;7.812;2023-08-17T12:05:06;101240.34;;;20.15;100.00
78198;BME280;67472;51.554;7.812;2023-08-17T12:07:54;101235.97;;;20.53;100.00
78198;BME280;67472;51.554;7.812;2023-08-17T12:10:41;101239.56;;;20.46;100.00
78198;BME280;67472;51.554;7.812;2023-08-17T12:13:32;101234.72;;;20.64;100.00
78198;BME280;67472;51.554;7.812;2023-08-17T12:16:19;101229.03;;;20.81;100.00
78198;BME280;67472;51.554;7.812;2023-08-17T12:19:07;101213.97;;;20.80;100.00
78198;BME280;67472;51.554;7.812;2023-08-17T12:21:53;101207.34;;;20.68;100.00
78198;BME280;67472;51.554;7.812;2023-08-17T12:24:40;101204.34;;;20.86;100.00
78198;BME280;67472;51.554;7.812;2023-08-17T12:27:26;101194.06;;;20.67;100.00
78198;BME280;67472;51.554;7.812;2023-08-17T12:30:16;101201.78;;;20.70;100.00
78198;BME280;67472;51.554;7.812;2023-08-17T12:33:09;101191.41;;;20.90;100.00
78198;BME280;67472;51.554;7.812;2023-08-17T12:35:56;101187.97;;;20.96;100.00
78198;BME280;67472;51.554;7.812;2023-08-17T12:38:43;101178.81;;;21.05;100.00
78198;BME280;67472;51.554;7.812;2023-08-17T12:41:30;101186.19;;;20.88;100.00
78198;BME280;67472;51.554;7.812;2023-08-17T12:44:16;101175.47;;;20.65;100.00
78198;BME280;67472;51.554;7.812;2023-08-17T12:47:02;101193.97;;;20.83;100.00
78198;BME280;67472;51.554;7.812;2023-08-17T12:49:49;101195.97;;;21.04;100.00
78198;BME280;67472;51.554;7.812;2023-08-17T12:52:36;101172.41;;;21.28;100.00
78198;BME280;67472;51.554;7.812;2023-08-17T12:55:22;101156.53;;;21.33;100.00
78198;BME280;67472;51.554;7.812;2023-08-17T12:58:08;101141.16;;;21.57;100.00
78198;BME280;67472;51.554;7.812;2023-08-17T13:00:55;101134.97;;;21.27;100.00
78198;BME280;67472;51.554;7.812;2023-08-17T13:03:41;101149.22;;;21.27;100.00
78198;BME280;67472;51.554;7.812;2023-08-17T13:06:27;101141.56;;;21.24;100.00
78198;BME280;67472;51.554;7.812;2023-08-17T13:09:15;101141.47;;;21.32;100.00
78198;BME280;67472;51.554;7.812;2023-08-17T13:12:03;101136.94;;;21.33;100.00
78198;BME280;67472;51.554;7.812;2023-08-17T13:14:50;101149.31;;;21.19;100.00
78198;BME280;67472;51.554;7.812;2023-08-17T13:17:37;101131.66;;;21.02;100.00
78198;BME280;67472;51.554;7.812;2023-08-17T13:20:23;101136.06;;;21.18;100.00
78198;BME280;67472;51.554;7.812;2023-08-17T13:23:10;101145.88;;;21.25;100.00
78198;BME280;67472;51.554;7.812;2023-08-17T13:25:57;101139.50;;;21.26;100.00
78198;BME280;67472;51.554;7.812;2023-08-17T13:28:44;101136.19;;;21.24;100.00
78198;BME280;67472;51.554;7.812;2023-08-17T13:31:30;101138.56;;;21.19;100.00
78198;BME280;67472;51.554;7.812;2023-08-17T13:34:16;101141.63;;;21.16;100.00
78198;BME280;67472;51.554;7.812;2023-08-17T13:37:02;101145.63;;;21.20;100.00
78198;BME280;67472;51.554;7.812;2023-08-17T13:39:48;101149.59;;;21.10;100.00
78198;BME280;67472;51.554;7.812;2023-08-17T13:42:36;101158.84;;;21.22;100.00
78198;BME280;67472;51.554;7.812;2023-08-17T13:45:22;101155.53;;;21.34;100.00
78198;BME280;67472;51.554;7.812;2023-08-17T13:48:12;101154.81;;;21.40;100.00
78198;BME280;67472;51.554;7.812;2023-08-17T13:50:58;101143.22;;;21.25;100.00
78198;BME280;67472;51.554;7.812;2023-08-17T13:53:44;101140.13;;;21.14;100.00
78198;BME280;67472;51.554;7.812;2023-08-17T13:56:30;101140.78;;;21.16;100.00
78198;BME280;67472;51.554;7.812;2023-08-17T13:59:18;101148.03;;;21.45;100.00
78198;BME280;67472;51.554;7.812;2023-08-17T14:02:04;101153.97;;;21.55;100.00
78198;BME280;67472;51.554;7.812;2023-08-17T14:04:50;101155.06;;;21.46;100.00
78198;BME280;67472;51.554;7.812;2023-08-17T14:07:37;101154.31;;;21.66;100.00
78198;BME280;67472;51.554;7.812;2023-08-17T14:10:23;101159.69;;;21.81;100.00
78198;BME280;67472;51.554;7.812;2023-08-17T14:13:09;101139.00;;;21.81;100.00
78198;BME280;67472;51.554;7.812;2023-08-17T14:15:57;101142.78;;;22.02;100.00
78198;BME280;67472;51.554;7.812;2023-08-17T14:18:44;101131.56;;;21.98;100.00
78198;BME280;67472;51.554;7.812;2023-08-17T14:21:30;101115.34;;;21.77;100.00
78198;BME280;67472;51.554;7.812;2023-08-17T14:24:16;101102.41;;;21.51;100.00